createdAt,value
2024-03-28T05:14:23.722Z,41.00
2024-03-28T05:15:23.678Z,42.00
2024-03-28T05:16:23.709Z,47.00
2024-03-28T05:17:23.670Z,56.00
2024-03-28T05:18:23.647Z,67.00
2024-03-28T05:19:23.669Z,80.00
2024-03-28T05:20:23.628Z,94.00
2024-03-28T05:22:23.640Z,118.00
2024-03-28T05:23:23.598Z,126.00
2024-03-28T05:24:23.588Z,135.00
2024-03-28T05:25:23.801Z,144.00
2024-03-28T05:26:23.572Z,157.00
2024-03-28T05:27:28.554Z,163.00
2024-03-28T05:28:23.563Z,202.00
2024-03-28T05:29:23.544Z,230.00
2024-03-28T05:30:23.532Z,268.00
2024-03-28T05:31:23.532Z,281.00
2024-03-28T05:32:23.561Z,248.00
2024-03-28T05:33:23.510Z,238.00
2024-03-28T05:34:23.603Z,215.00
2024-03-28T05:35:23.486Z,199.00
2024-03-28T05:36:23.490Z,170.00
2024-03-28T05:37:23.490Z,193.00
2024-03-28T05:38:23.462Z,221.00
2024-03-28T05:39:23.450Z,272.00
2024-03-28T05:40:23.434Z,354.00
2024-03-28T05:41:23.430Z,356.00
2024-03-28T05:42:26.409Z,412.00
2024-03-28T05:43:23.406Z,338.00
2024-03-28T05:44:23.396Z,314.00
2024-03-28T05:45:23.381Z,320.00
2024-03-28T05:46:23.431Z,326.00
2024-03-28T05:47:23.383Z,310.00
2024-03-28T05:48:23.388Z,280.00
2024-03-28T05:49:23.379Z,327.00
2024-03-28T05:50:23.338Z,351.00
2024-03-28T05:51:23.318Z,343.00
2024-03-28T05:53:23.329Z,343.00
2024-03-28T05:54:23.304Z,354.00
2024-03-28T05:55:23.320Z,322.00
2024-03-28T05:56:23.285Z,236.00
2024-03-28T05:57:26.279Z,199.00
2024-03-28T05:58:23.268Z,246.00
2024-03-28T05:59:23.244Z,346.00
2024-03-28T06:00:23.259Z,426.00
2024-03-28T06:01:23.217Z,382.00
2024-03-28T06:02:23.210Z,417.00
2024-03-28T06:03:25.858Z,502.00
2024-03-28T06:04:23.206Z,579.00
2024-03-28T06:05:23.188Z,732.00
2024-03-28T06:06:23.184Z,1016.00
2024-03-28T06:07:23.170Z,1272.00
2024-03-28T06:08:23.161Z,1437.00
2024-03-28T06:09:23.165Z,1586.00
2024-03-28T06:10:23.163Z,1634.00
2024-03-28T06:11:23.142Z,1660.00
2024-03-28T06:12:26.124Z,1681.00
2024-03-28T06:13:23.138Z,1621.00
2024-03-28T06:14:23.105Z,1560.00
2024-03-28T06:15:23.101Z,1495.00
2024-03-28T06:16:23.081Z,1376.00
2024-03-28T06:17:23.072Z,1245.00
2024-03-28T06:18:23.087Z,1119.00
2024-03-28T06:19:23.054Z,1121.00
2024-03-28T06:20:23.213Z,1131.00
2024-03-28T06:21:23.030Z,1110.00
2024-03-28T06:22:25.200Z,1080.00
2024-03-28T06:23:23.010Z,1049.00
2024-03-28T06:24:23.017Z,1113.00
2024-03-28T06:25:23.057Z,1156.00
2024-03-28T06:26:22.983Z,1119.00
2024-03-28T06:27:25.973Z,1096.00
2024-03-28T06:28:22.985Z,1056.00
2024-03-28T06:29:22.953Z,1089.00
2024-03-28T06:31:22.995Z,1289.00
2024-03-28T06:32:22.954Z,1348.00
2024-03-28T06:33:22.918Z,1360.00
2024-03-28T06:34:22.906Z,1318.00
2024-03-28T06:35:22.898Z,1240.00
2024-03-28T06:36:22.881Z,1182.00
2024-03-28T06:37:22.898Z,1166.00
2024-03-28T06:38:22.877Z,1216.00
2024-03-28T06:39:22.856Z,1251.00
2024-03-28T06:40:22.855Z,1167.00
2024-03-28T06:41:22.833Z,1052.00
2024-03-28T06:42:25.851Z,978.00
2024-03-28T06:43:22.844Z,884.00
2024-03-28T06:44:22.808Z,849.00
2024-03-28T06:45:22.786Z,897.00
2024-03-28T06:46:22.837Z,909.00
2024-03-28T06:47:22.775Z,839.00
2024-03-28T06:48:22.782Z,673.00
2024-03-28T06:49:22.795Z,590.00
2024-03-28T06:51:22.739Z,561.00
2024-03-28T06:52:22.724Z,523.00
2024-03-28T06:53:22.735Z,515.00
2024-03-28T06:54:22.701Z,593.00
2024-03-28T06:55:22.695Z,763.00
2024-03-28T06:56:22.693Z,787.00
2024-03-28T06:57:25.714Z,678.00
2024-03-28T06:58:22.723Z,679.00
2024-03-28T06:59:22.648Z,783.00
2024-03-28T07:00:22.642Z,880.00
2024-03-28T07:01:22.634Z,1021.00
2024-03-28T07:02:22.613Z,1093.00
2024-03-28T07:03:22.609Z,1117.00
2024-03-28T07:04:22.597Z,1069.00
2024-03-28T07:05:22.582Z,1028.00
2024-03-28T07:07:22.643Z,1049.00
2024-03-28T07:08:22.546Z,1156.00
2024-03-28T07:09:22.571Z,1142.00
2024-03-28T07:10:22.544Z,1061.00
2024-03-28T07:11:22.518Z,1044.00
2024-03-28T07:12:25.510Z,1124.00
2024-03-28T07:13:22.505Z,1157.00
2024-03-28T07:14:22.534Z,1038.00
2024-03-28T07:15:22.480Z,841.00
2024-03-28T07:16:22.467Z,788.00
2024-03-28T07:17:22.455Z,805.00
2024-03-28T07:18:22.441Z,851.00
2024-03-28T07:19:22.463Z,813.00
2024-03-28T07:20:22.424Z,789.00
2024-03-28T07:21:22.436Z,748.00
2024-03-28T07:22:22.402Z,736.00
2024-03-28T07:23:22.422Z,645.00
2024-03-28T07:24:22.385Z,647.00
2024-03-28T07:25:22.404Z,682.00
2024-03-28T07:26:22.374Z,597.00
2024-03-28T07:27:25.354Z,620.00
2024-03-28T07:28:22.340Z,617.00
2024-03-28T07:29:22.327Z,701.00
2024-03-28T07:30:22.331Z,881.00
2024-03-28T07:31:22.307Z,1000.00
2024-03-28T07:32:22.299Z,963.00
2024-03-28T07:33:22.319Z,1097.00
2024-03-28T07:34:22.276Z,1109.00
2024-03-28T07:35:23.867Z,960.00
2024-03-28T07:36:22.266Z,1058.00
2024-03-28T07:37:22.248Z,1275.00
2024-03-28T07:38:22.226Z,1289.00
2024-03-28T07:39:22.235Z,1201.00
2024-03-28T07:40:22.218Z,1060.00
2024-03-28T07:41:22.214Z,810.00
2024-03-28T07:46:44.206Z,684.00
2024-03-28T07:47:52.660Z,679.00
2024-03-28T08:18:08.031Z,1184.00
2024-03-28T08:21:24.041Z,1393.00
2024-03-28T08:22:24.003Z,1279.00
2024-03-28T08:23:24.051Z,1131.00
2024-03-28T08:24:23.988Z,1174.00
2024-03-28T08:25:23.978Z,1685.00
2024-03-28T08:26:23.971Z,1933.00
2024-03-28T08:27:23.954Z,2172.00
2024-03-28T08:28:23.963Z,2428.00
2024-03-28T08:29:23.935Z,2403.00
2024-03-28T08:30:26.098Z,2261.00
2024-03-28T08:32:23.903Z,2196.00
2024-03-28T08:33:23.893Z,2445.00
2024-03-28T08:34:26.899Z,2537.00
2024-03-28T08:35:23.879Z,1870.00
2024-03-28T08:36:23.869Z,2089.00
2024-03-28T08:37:23.872Z,2311.00
2024-03-28T08:38:23.849Z,3084.00
2024-03-28T08:39:23.840Z,2593.00
2024-03-28T08:40:28.934Z,1877.00
2024-03-28T08:41:23.902Z,1634.00
2024-03-28T08:42:23.806Z,1949.00
2024-03-28T08:43:23.807Z,1900.00
2024-03-28T08:44:23.778Z,2498.00
2024-03-28T08:45:23.771Z,3411.00
2024-03-28T08:46:23.755Z,3011.00
2024-03-28T08:47:23.799Z,2401.00
2024-03-28T08:48:23.748Z,1189.00
2024-03-28T08:49:26.777Z,3210.00
2024-03-28T08:50:23.718Z,3888.00
2024-03-28T08:51:23.734Z,3829.00
2024-03-28T08:52:23.698Z,4209.00
2024-03-28T08:53:23.696Z,4215.00
2024-03-28T08:54:23.681Z,4073.00
2024-03-28T08:55:23.686Z,3466.00
2024-03-28T08:56:23.658Z,3272.00
2024-03-28T08:57:23.658Z,3620.00
2024-03-28T08:58:23.639Z,3616.00
2024-03-28T08:59:23.635Z,3835.00
2024-03-28T09:00:23.623Z,3491.00
2024-03-28T09:01:23.613Z,3295.00
2024-03-28T09:02:23.633Z,3021.00
2024-03-28T09:03:23.607Z,3664.00
2024-03-28T09:04:26.605Z,3853.00
2024-03-28T09:05:23.574Z,4484.00
2024-03-28T09:06:23.574Z,3809.00
2024-03-28T09:07:23.550Z,4141.00
2024-03-28T09:08:23.535Z,4499.00
2024-03-28T09:09:23.537Z,4262.00
2024-03-28T09:10:23.538Z,4359.00
2024-03-28T09:11:23.502Z,4197.00
2024-03-28T09:12:23.502Z,4382.00
2024-03-28T09:13:23.662Z,4819.00
2024-03-28T09:14:23.476Z,5163.00
2024-03-28T09:15:23.464Z,5559.00
2024-03-28T09:16:23.450Z,5581.00
2024-03-28T09:17:23.434Z,5397.00
2024-03-28T09:18:23.427Z,3897.00
2024-03-28T09:19:26.422Z,2919.00
2024-03-28T09:21:23.400Z,4839.00
2024-03-28T09:22:23.386Z,4961.00
2024-03-28T09:23:23.385Z,4769.00
2024-03-28T09:24:23.395Z,5016.00
2024-03-28T09:26:23.350Z,5013.00
2024-03-28T09:27:23.370Z,4980.00
2024-03-28T09:28:23.325Z,5188.00
2024-03-28T09:29:23.351Z,5444.00
2024-03-28T09:30:23.312Z,5673.00
2024-03-28T09:31:23.313Z,5947.00
2024-03-28T09:32:23.295Z,5848.00
2024-03-28T09:33:23.278Z,5715.00
2024-03-28T09:34:26.265Z,5638.00
2024-03-28T09:36:23.731Z,5643.00
2024-03-28T09:37:23.236Z,5814.00
2024-03-28T09:38:23.231Z,5514.00
2024-03-28T09:39:23.218Z,5441.00
2024-03-28T09:41:23.193Z,5023.00
2024-03-28T09:42:23.179Z,4855.00
2024-03-28T09:43:23.175Z,4340.00
2024-03-28T09:44:23.165Z,2770.00
2024-03-28T09:45:23.164Z,2313.00
2024-03-28T09:46:23.145Z,3109.00
2024-03-28T09:47:23.149Z,2340.00
2024-03-28T09:49:34.083Z,4695.00
2024-03-28T09:50:23.104Z,3334.00
2024-03-28T09:51:23.090Z,2416.00
2024-03-28T09:52:23.099Z,3530.00
2024-03-28T09:53:23.141Z,4303.00
2024-03-28T09:54:23.074Z,4287.00
2024-03-28T09:55:23.075Z,4768.00
2024-03-28T09:56:23.054Z,4615.00
2024-03-28T09:57:23.074Z,3249.00
2024-03-28T09:58:23.020Z,3802.00
2024-03-28T09:59:23.006Z,4747.00
2024-03-28T10:00:23.012Z,3420.00
2024-03-28T10:01:22.990Z,3084.00
2024-03-28T10:02:22.981Z,2840.00
2024-03-28T10:03:22.964Z,2903.00
2024-03-28T10:04:26.433Z,3019.00
2024-03-28T10:05:22.963Z,2290.00
2024-03-28T10:06:22.976Z,2124.00
2024-03-28T10:07:22.930Z,2416.00
2024-03-28T10:08:22.914Z,2991.00
2024-03-28T10:09:22.917Z,2916.00
2024-03-28T10:10:22.896Z,2255.00
2024-03-28T10:11:22.894Z,2558.00
2024-03-28T10:12:22.875Z,3153.00
2024-03-28T10:13:22.862Z,2695.00
2024-03-28T10:14:22.865Z,1827.00
2024-03-28T10:15:22.851Z,1558.00
2024-03-28T10:16:22.853Z,1565.00
2024-03-28T10:17:22.890Z,1338.00
2024-03-28T10:18:22.847Z,2320.00
2024-03-28T10:19:25.812Z,2565.00
2024-03-28T10:20:23.787Z,2191.00
2024-03-28T10:21:22.812Z,2010.00
2024-03-28T10:22:22.770Z,2101.00
2024-03-28T10:23:22.759Z,2382.00
2024-03-28T10:24:22.756Z,1764.00
2024-03-28T10:25:22.740Z,2803.00
2024-03-28T10:26:22.753Z,2190.00
2024-03-28T10:27:25.476Z,1538.00
2024-03-28T10:28:22.702Z,2877.00
2024-03-28T10:29:22.717Z,2554.00
2024-03-28T10:30:22.686Z,1696.00
2024-03-28T10:31:22.695Z,2460.00
2024-03-28T10:32:22.664Z,3487.00
2024-03-28T10:33:22.671Z,4124.00
2024-03-28T10:34:25.645Z,5259.00
2024-03-28T10:36:22.621Z,4630.00
2024-03-28T10:37:23.526Z,5872.00
2024-03-28T10:38:23.638Z,6494.00
2024-03-28T10:39:22.598Z,6898.00
2024-03-28T10:40:22.581Z,7001.00
2024-03-28T10:41:22.572Z,6966.00
2024-03-28T10:42:22.604Z,6980.00
2024-03-28T10:43:24.281Z,7161.00
2024-03-28T10:44:22.552Z,7267.00
2024-03-28T10:45:22.525Z,7724.00
2024-03-28T10:46:22.535Z,8027.00
2024-03-28T10:47:22.564Z,7416.00
2024-03-28T10:49:25.500Z,8086.00
2024-03-28T10:50:22.480Z,8462.00
2024-03-28T10:51:22.487Z,8776.00
2024-03-28T10:52:22.469Z,8918.00
2024-03-28T10:54:23.490Z,10278.00
2024-03-28T10:55:22.426Z,10546.00
2024-03-28T10:56:22.413Z,10424.00
2024-03-28T10:57:22.412Z,9997.00
2024-03-28T10:58:22.572Z,9810.00
2024-03-28T10:59:22.424Z,9337.00
2024-03-28T11:00:22.429Z,9053.00
2024-03-28T11:02:22.360Z,8675.00
2024-03-28T11:03:22.341Z,9042.00
2024-03-28T11:04:25.330Z,8733.00
2024-03-28T11:05:22.345Z,7531.00
2024-03-28T11:06:22.319Z,6085.00
2024-03-28T11:07:22.297Z,5598.00
2024-03-28T11:08:22.293Z,5920.00
2024-03-28T11:09:22.324Z,6211.00
2024-03-28T11:10:22.274Z,5779.00
2024-03-28T11:11:22.256Z,5134.00
2024-03-28T11:12:22.255Z,4788.00
2024-03-28T11:13:23.857Z,5147.00
2024-03-28T11:14:22.239Z,5601.00
2024-03-28T11:15:22.226Z,5312.00
2024-03-28T11:16:22.216Z,4767.00
2024-03-28T11:17:22.201Z,3678.00
2024-03-28T11:18:22.189Z,3460.00
2024-03-28T11:19:25.176Z,3780.00
2024-03-28T11:20:22.172Z,4113.00
2024-03-28T11:21:22.158Z,4058.00
2024-03-28T11:22:22.145Z,4516.00
2024-03-28T11:23:22.138Z,4565.00
2024-03-28T11:24:22.127Z,5571.00
2024-03-28T11:25:22.326Z,6830.00
2024-03-28T11:26:22.113Z,7415.00
2024-03-28T11:27:24.308Z,7560.00
2024-03-28T11:28:22.084Z,7866.00
2024-03-28T11:29:22.078Z,8656.00
2024-03-28T11:30:22.061Z,8933.00
2024-03-28T11:31:22.071Z,8890.00
2024-03-28T11:32:22.055Z,7936.00
2024-03-28T11:33:22.034Z,7424.00
2024-03-28T11:34:25.025Z,7737.00
2024-03-28T11:35:22.027Z,7729.00
2024-03-28T11:36:22.037Z,6901.00
2024-03-28T11:37:22.007Z,6310.00
2024-03-28T11:38:21.978Z,6918.00
2024-03-28T11:40:22.427Z,9425.00
2024-03-28T11:41:21.948Z,8876.00
2024-03-28T11:43:22.932Z,6231.00
2024-03-28T11:44:21.926Z,5586.00
2024-03-28T11:45:21.923Z,5417.00
2024-03-28T11:46:21.896Z,5536.00
2024-03-28T11:47:21.919Z,6291.00
2024-03-28T11:48:21.880Z,7469.00
2024-03-28T11:49:24.861Z,8356.00
2024-03-28T11:50:25.666Z,9140.00
2024-03-28T11:51:21.841Z,9619.00
2024-03-28T11:53:21.834Z,9000.00
2024-03-28T11:54:21.809Z,9527.00
2024-03-28T11:55:21.801Z,9891.00
2024-03-28T11:56:21.789Z,9877.00
2024-03-28T11:57:21.788Z,9424.00
2024-03-28T11:58:22.442Z,9330.00
2024-03-28T11:59:21.766Z,9199.00
2024-03-28T12:01:21.743Z,8638.00
2024-03-28T12:02:21.731Z,7701.00
2024-03-28T12:03:21.729Z,7214.00
2024-03-28T12:04:24.705Z,7123.00
2024-03-28T12:05:21.711Z,8176.00
2024-03-28T12:06:21.687Z,8952.00
2024-03-28T12:07:21.680Z,9924.00
2024-03-28T12:08:22.078Z,10354.00
2024-03-28T12:09:21.656Z,10343.00
2024-03-28T12:10:21.643Z,9872.00
2024-03-28T12:11:21.661Z,9333.00
2024-03-28T12:12:21.639Z,9594.00
2024-03-28T12:13:21.615Z,11031.00
2024-03-28T12:14:21.650Z,12466.00
2024-03-28T12:16:21.596Z,22047.00
2024-03-28T12:17:21.566Z,18428.00
2024-03-28T12:18:21.578Z,14995.00
2024-03-28T12:19:24.556Z,16861.00
2024-03-28T12:21:21.554Z,12424.00
2024-03-28T12:23:21.557Z,71001.00
2024-03-28T12:24:21.496Z,10249.00
2024-03-28T12:25:21.511Z,80234.00
2024-03-28T12:26:23.771Z,70124.00
2024-03-28T12:28:21.458Z,21402.00
2024-03-28T12:29:21.466Z,17025.00
2024-03-28T12:31:21.429Z,13364.00
2024-03-28T12:32:21.434Z,12669.00
2024-03-28T12:33:21.461Z,11120.00
2024-03-28T12:34:24.401Z,9713.00
2024-03-28T12:35:21.583Z,11525.00
2024-03-28T12:36:29.159Z,10763.00
2024-03-28T12:38:21.350Z,9715.00
2024-03-28T12:39:21.338Z,18472.00
2024-03-28T12:41:21.321Z,12574.00
2024-03-28T12:43:21.300Z,15395.00
2024-03-28T12:44:21.282Z,16523.00
2024-03-28T12:45:24.424Z,13125.00
2024-03-28T12:46:21.261Z,8586.00
2024-03-28T12:48:21.246Z,13375.00
2024-03-28T12:49:24.234Z,16346.00
2024-03-28T12:51:21.237Z,15824.00
2024-03-28T12:52:21.203Z,13729.00
2024-03-28T12:53:21.207Z,13241.00
2024-03-28T12:54:21.195Z,7679.00
2024-03-28T12:56:21.161Z,31025.00
2024-03-28T12:57:21.157Z,11865.00
2024-03-28T12:58:21.139Z,5308.00
2024-03-28T12:59:21.152Z,19535.00
2024-03-28T13:01:21.110Z,8727.00
2024-03-28T13:02:21.148Z,8498.00
2024-03-28T13:03:21.096Z,6322.00
2024-03-28T13:04:24.077Z,17677.00
2024-03-28T13:05:21.079Z,10306.00
2024-03-28T13:06:21.066Z,6669.00
2024-03-28T13:07:21.059Z,77053.00
2024-03-28T13:08:21.035Z,63186.00
2024-03-28T13:09:21.029Z,13493.00
2024-03-28T13:11:21.007Z,7101.00
2024-03-28T13:12:21.001Z,6817.00
2024-03-28T13:13:21.004Z,76015.00
2024-03-28T13:14:20.973Z,60455.00
2024-03-28T13:15:20.960Z,6895.00
2024-03-28T13:16:20.981Z,4126.00
2024-03-28T13:17:20.937Z,9618.00
2024-03-28T13:18:20.932Z,75026.00
2024-03-28T13:19:23.926Z,74932.00
2024-03-28T13:21:20.925Z,79950.00
2024-03-28T13:22:20.891Z,82086.00
2024-03-28T13:24:20.874Z,81864.00
2024-03-28T13:25:20.854Z,79312.00
2024-03-28T13:26:33.717Z,75723.00
2024-03-28T13:27:38.252Z,75340.00
2024-03-28T13:28:21.823Z,75528.00
2024-03-28T13:29:20.813Z,75716.00
2024-03-28T13:31:20.790Z,78594.00
2024-03-28T13:32:20.953Z,81238.00
2024-03-28T13:34:23.755Z,80756.00
2024-03-28T13:35:20.756Z,79982.00
2024-03-28T13:36:20.759Z,79233.00
2024-03-28T13:37:20.736Z,78947.00
2024-03-28T13:39:20.726Z,81727.00
2024-03-28T13:40:21.686Z,58712.00
2024-03-28T13:41:20.793Z,8053.00
2024-03-28T13:42:20.676Z,6567.00
2024-03-28T13:43:20.718Z,79412.00
2024-03-28T13:44:20.712Z,79692.00
2024-03-28T13:45:20.649Z,77172.00
2024-03-28T13:46:23.231Z,75804.00
2024-03-28T13:47:20.628Z,78859.00
2024-03-28T13:48:20.619Z,81848.00
2024-03-28T13:49:23.617Z,81312.00
2024-03-28T13:50:20.610Z,79729.00
2024-03-28T13:51:20.586Z,79723.00
2024-03-28T13:52:23.910Z,81776.00
2024-03-28T13:54:20.598Z,79074.00
2024-03-28T13:55:20.538Z,77481.00
2024-03-28T13:56:20.527Z,77543.00
2024-03-28T13:57:20.511Z,80257.00
2024-03-28T13:59:20.520Z,81597.00
2024-03-28T14:00:20.484Z,62382.00
2024-03-28T14:01:20.474Z,14708.00
2024-03-28T14:02:20.492Z,4769.00
2024-03-28T14:03:20.452Z,26652.00
2024-03-28T14:04:23.438Z,11432.00
2024-03-28T14:05:20.447Z,8902.00
2024-03-28T14:06:20.460Z,6054.00
2024-03-28T14:07:20.416Z,3439.00
2024-03-28T14:08:20.411Z,7553.00
2024-03-28T14:10:20.394Z,79197.00
2024-03-28T14:11:20.377Z,82042.00
2024-03-28T14:13:20.350Z,7858.00
2024-03-28T14:15:20.328Z,4543.00
2024-03-28T14:16:20.321Z,2803.00
2024-03-28T14:17:20.497Z,76072.00
2024-03-28T14:18:20.298Z,79407.00
2024-03-28T14:19:23.288Z,61322.00
2024-03-28T14:20:20.294Z,78826.00
2024-03-28T14:21:20.269Z,79771.00
2024-03-28T14:22:20.263Z,81640.00
2024-03-28T14:23:20.247Z,81129.00
2024-03-28T14:25:20.243Z,78180.00
2024-03-28T14:27:20.204Z,8174.00
2024-03-28T14:28:20.213Z,75249.00
2024-03-28T14:30:20.194Z,74794.00
2024-03-28T14:31:20.179Z,77138.00
2024-03-28T14:32:20.144Z,78235.00
2024-03-28T14:33:20.133Z,7159.00
2024-03-28T14:34:23.134Z,7224.00
2024-03-28T14:36:20.103Z,76036.00
2024-03-28T14:37:20.099Z,76953.00
2024-03-28T14:38:20.087Z,78425.00
2024-03-28T14:39:20.092Z,79368.00
2024-03-28T14:40:20.062Z,7325.00
2024-03-28T14:41:20.058Z,7397.00
2024-03-28T14:42:20.043Z,76908.00
2024-03-28T14:43:20.048Z,75844.00
2024-03-28T14:44:20.037Z,75689.00
2024-03-28T14:46:20.002Z,76013.00
2024-03-28T14:47:19.985Z,14492.00
2024-03-28T14:48:20.041Z,77608.00
2024-03-28T14:49:22.965Z,79001.00
2024-03-28T14:50:19.960Z,77908.00
2024-03-28T14:51:19.941Z,75740.00
2024-03-28T14:52:19.940Z,15919.00
2024-03-28T14:53:19.929Z,9078.00
2024-03-28T14:54:19.909Z,6942.00
2024-03-28T14:55:19.916Z,14400.00
2024-03-28T14:56:19.900Z,17322.00
2024-03-28T14:57:19.884Z,13919.00
2024-03-28T14:58:24.150Z,16180.00
2024-03-28T14:59:20.867Z,22704.00
2024-03-28T15:00:19.848Z,21802.00
2024-03-28T15:01:19.852Z,10075.00
2024-03-28T15:02:19.855Z,6183.00
2024-03-28T15:03:19.826Z,6847.00
2024-03-28T15:04:30.340Z,19939.00
2024-03-28T15:05:20.801Z,21774.00
2024-03-28T15:06:19.790Z,11579.00
2024-03-28T15:07:19.778Z,7241.00
2024-03-28T15:08:19.768Z,9858.00
2024-03-28T15:09:19.759Z,23829.00
2024-03-28T15:10:19.741Z,36130.00
2024-03-28T15:11:19.917Z,32223.00
2024-03-28T15:12:19.729Z,26091.00
2024-03-28T15:13:19.712Z,32141.00
2024-03-28T15:14:19.702Z,72192.00
2024-03-28T15:16:19.680Z,19694.00
2024-03-28T15:17:19.673Z,23381.00
2024-03-28T15:18:19.670Z,26261.00
2024-03-28T15:19:22.646Z,25862.00
2024-03-28T15:20:19.639Z,16302.00
2024-03-28T15:21:19.639Z,11968.00
2024-03-28T15:22:19.661Z,23684.00
2024-03-28T15:23:19.613Z,76341.00
2024-03-28T15:24:19.606Z,75192.00
2024-03-28T15:25:19.580Z,11463.00
2024-03-28T15:26:19.575Z,12041.00
2024-03-28T15:27:19.571Z,11166.00
2024-03-28T15:28:19.548Z,6887.00
2024-03-28T15:29:19.549Z,11145.00
2024-03-28T15:31:19.520Z,25057.00
2024-03-28T15:32:19.508Z,26794.00
2024-03-28T15:33:19.662Z,20733.00
2024-03-28T15:34:22.497Z,21540.00
2024-03-28T15:35:19.485Z,9706.00
2024-03-28T15:36:19.484Z,7747.00
2024-03-28T15:38:19.465Z,7023.00
2024-03-28T15:39:19.451Z,7639.00
2024-03-28T15:41:19.411Z,7538.00
2024-03-28T15:43:19.411Z,11777.00
2024-03-28T15:44:19.422Z,17210.00
2024-03-28T15:45:19.426Z,27436.00
2024-03-28T15:46:19.371Z,18405.00
2024-03-28T15:47:19.353Z,6099.00
2024-03-28T15:48:19.341Z,5423.00
2024-03-28T15:49:22.523Z,12328.00
2024-03-28T15:50:19.331Z,17255.00
2024-03-28T15:51:19.331Z,11810.00
2024-03-28T15:52:19.303Z,5725.00
2024-03-28T15:53:19.291Z,5207.00
2024-03-28T15:54:19.277Z,6594.00
2024-03-28T15:56:19.256Z,16469.00
2024-03-28T15:57:19.245Z,6858.00
2024-03-28T15:58:19.239Z,5341.00
2024-03-28T15:59:19.226Z,18543.00
2024-03-28T16:00:19.406Z,11413.00
2024-03-28T16:01:19.211Z,6560.00
2024-03-28T16:02:19.191Z,5305.00
2024-03-28T16:03:19.178Z,4746.00
2024-03-28T16:04:22.172Z,3883.00
2024-03-28T16:06:19.153Z,1913.00
2024-03-28T16:07:19.142Z,3359.00
2024-03-28T16:08:19.129Z,3414.00
2024-03-28T16:09:19.118Z,5144.00
2024-03-28T16:10:19.109Z,4584.00
2024-03-28T16:11:19.111Z,3848.00
2024-03-28T16:12:19.126Z,3351.00
2024-03-28T16:14:19.080Z,1334.00
2024-03-28T16:15:19.058Z,3759.00
2024-03-28T16:16:19.043Z,7310.00
2024-03-28T16:17:19.030Z,3171.00
2024-03-28T16:18:19.033Z,4659.00
2024-03-28T16:19:22.056Z,2904.00
2024-03-28T16:21:18.994Z,2945.00
2024-03-28T16:22:18.990Z,2934.00
2024-03-28T16:24:19.926Z,3415.00
2024-03-28T16:25:18.944Z,3242.00
2024-03-28T16:26:18.941Z,3042.00
2024-03-28T16:27:18.940Z,2769.00
2024-03-28T16:29:18.922Z,2543.00
2024-03-28T16:31:18.887Z,2500.00
2024-03-28T16:32:19.037Z,2541.00
2024-03-28T16:33:18.866Z,2548.00
2024-03-28T16:34:21.869Z,2514.00
2024-03-28T16:35:18.843Z,2452.00
2024-03-28T16:36:18.836Z,2473.00
2024-03-28T16:37:18.822Z,2440.00
2024-03-28T16:38:18.807Z,2419.00
2024-03-28T16:40:18.833Z,2751.00
2024-03-28T16:41:18.785Z,2552.00
2024-03-28T16:42:19.730Z,2337.00
2024-03-28T16:43:19.715Z,2251.00
2024-03-28T16:44:18.748Z,2192.00
2024-03-28T16:45:18.733Z,2146.00
2024-03-28T16:46:18.752Z,2097.00
2024-03-28T16:47:18.727Z,2078.00
2024-03-28T16:48:18.729Z,2062.00
2024-03-28T16:49:21.711Z,2055.00
2024-03-28T16:50:18.683Z,2065.00
2024-03-28T16:51:18.666Z,2099.00
2024-03-28T16:52:18.660Z,2128.00
2024-03-28T16:53:18.648Z,2093.00
2024-03-28T16:54:18.676Z,2005.00
2024-03-28T16:55:18.631Z,1923.00
2024-03-28T16:56:18.616Z,1873.00
2024-03-28T16:57:18.604Z,1840.00
2024-03-28T16:58:18.593Z,1813.00
2024-03-28T16:59:18.599Z,1787.00
2024-03-28T17:00:18.589Z,1762.00
2024-03-28T17:01:18.578Z,1740.00
2024-03-28T17:02:19.524Z,1714.00
2024-03-28T17:04:21.527Z,1664.00
2024-03-28T17:05:18.521Z,1668.00
2024-03-28T17:06:18.520Z,1695.00
2024-03-28T17:07:18.519Z,1679.00
2024-03-28T17:08:18.502Z,1634.00
2024-03-28T17:09:19.447Z,1598.00
2024-03-28T17:10:18.493Z,1576.00
2024-03-28T17:11:18.456Z,1552.00
2024-03-28T17:12:18.448Z,1510.00
2024-03-28T17:13:18.441Z,1472.00
2024-03-28T17:15:18.409Z,1393.00
2024-03-28T17:16:18.406Z,1351.00
2024-03-28T17:17:18.390Z,1313.00
2024-03-28T17:18:18.380Z,1280.00
2024-03-28T17:19:21.371Z,1247.00
2024-03-28T17:20:18.369Z,1216.00
2024-03-28T17:21:18.371Z,1183.00
2024-03-28T17:22:18.360Z,1151.00
2024-03-28T17:23:18.333Z,1114.00
2024-03-28T17:24:18.337Z,1075.00
2024-03-28T17:25:18.347Z,1034.00
2024-03-28T17:26:18.301Z,1000.00
2024-03-28T17:27:19.692Z,967.00
2024-03-28T17:28:19.291Z,925.00
2024-03-28T17:29:18.593Z,885.00
2024-03-28T17:31:26.171Z,807.00
2024-03-28T17:33:18.218Z,734.00
2024-03-28T17:34:21.232Z,697.00
2024-03-28T17:36:18.191Z,626.00
2024-03-28T17:37:18.195Z,584.00
2024-03-28T17:38:18.178Z,543.00
2024-03-28T17:40:18.157Z,473.00
2024-03-28T17:41:18.138Z,442.00
2024-03-28T17:43:18.118Z,388.00
2024-03-28T17:44:18.122Z,353.00
2024-03-28T17:45:18.612Z,328.00
2024-03-28T17:46:19.058Z,302.00
2024-03-28T17:48:18.117Z,253.00
2024-03-28T17:49:21.055Z,229.00
2024-03-28T17:50:18.049Z,208.00
2024-03-28T17:51:18.031Z,183.00
2024-03-28T17:53:18.047Z,150.00
2024-03-28T17:54:18.007Z,135.00
2024-03-28T17:55:17.991Z,114.00
2024-03-28T17:56:18.005Z,104.00
2024-03-28T17:57:17.969Z,90.00
2024-03-28T17:59:17.975Z,73.00
2024-03-28T18:01:17.932Z,51.00
2024-03-28T18:03:17.918Z,38.00
2024-03-28T18:04:20.900Z,35.00
2024-03-28T18:06:17.873Z,25.00
2024-03-28T18:07:17.879Z,17.00
2024-03-28T18:09:17.843Z,13.00
2024-03-28T18:11:17.844Z,11.00
2024-03-28T18:12:17.825Z,9.00
2024-03-28T18:13:17.820Z,7.00
2024-03-28T18:14:17.786Z,7.00
2024-03-28T18:15:17.834Z,0.00
2024-03-28T18:16:17.763Z,1.00
2024-03-28T18:17:18.276Z,2.00
2024-03-28T18:19:20.794Z,0.00
2024-03-28T18:21:17.724Z,1.00
2024-03-28T18:22:17.756Z,0.00
2024-03-28T18:24:17.752Z,0.00
2024-03-28T18:26:17.707Z,0.00
2024-03-28T18:28:17.786Z,0.00
2024-03-28T18:29:17.679Z,0.00
2024-03-28T18:31:17.690Z,0.00
2024-03-28T18:32:18.638Z,0.00
2024-03-28T18:33:17.656Z,0.00
2024-03-28T18:34:20.632Z,0.00
2024-03-28T18:35:17.625Z,0.00
2024-03-28T18:36:17.610Z,0.00
2024-03-28T18:38:18.542Z,0.00
2024-03-28T18:39:17.579Z,0.00
2024-03-28T18:40:17.562Z,0.00
2024-03-28T18:41:17.549Z,0.00
2024-03-28T18:42:17.565Z,0.00
2024-03-28T18:43:17.527Z,0.00
2024-03-28T18:44:18.506Z,0.00
2024-03-28T18:45:17.533Z,0.00
2024-03-28T18:46:17.515Z,0.00
2024-03-28T18:47:17.498Z,0.00
2024-03-28T18:49:20.936Z,0.00
2024-03-28T18:50:17.494Z,0.00
2024-03-28T18:51:17.455Z,0.00
2024-03-28T18:52:17.437Z,0.00
2024-03-28T18:53:17.425Z,0.00
2024-03-28T18:54:17.422Z,0.00
2024-03-28T18:55:17.408Z,0.00
2024-03-28T18:56:19.356Z,0.00
2024-03-28T18:57:18.355Z,0.00
2024-03-28T18:58:17.370Z,0.00
2024-03-28T18:59:17.359Z,0.00
2024-03-28T19:00:17.542Z,0.00
2024-03-28T19:01:17.346Z,0.00
2024-03-28T19:02:18.287Z,0.00
2024-03-28T19:04:21.270Z,0.00
2024-03-28T19:05:17.313Z,0.00
2024-03-28T19:06:17.291Z,0.00
2024-03-28T19:07:17.273Z,0.00
2024-03-28T19:08:17.268Z,0.00
2024-03-28T19:09:17.265Z,0.00
2024-03-28T19:10:17.275Z,0.00
2024-03-28T19:11:17.286Z,0.00
2024-03-28T19:12:17.230Z,0.00
2024-03-28T19:13:17.210Z,0.00
2024-03-28T19:14:17.210Z,0.00
2024-03-28T19:15:17.196Z,0.00
2024-03-28T19:16:17.184Z,0.00
2024-03-28T19:17:17.179Z,0.00
2024-03-28T19:18:17.172Z,0.00
2024-03-28T19:19:20.150Z,0.00
2024-03-28T19:21:17.140Z,0.00
2024-03-28T19:22:17.152Z,0.00
2024-03-28T19:23:17.117Z,0.00
2024-03-28T19:24:18.064Z,0.00
2024-03-28T19:25:17.091Z,0.00
2024-03-28T19:26:17.099Z,0.00